Lesage, West Virginia
Current Conditions -  °F | °C
As of 6:51 AM on Thursday 29 Jan 2015 (Local Time) from KHTS Reporting Station
Clear Clear  
Wind Chill: 22°   Ceiling: Unl
Heat Index: 27°   Visibility: 10mi
Dew Point: 20°   Wind: 5mph
Humidity: 75%   Direction: 200°SSW
Pressure: 30.03"   Gusts: NA
Location:  38.51°N, 82.3°W
Report Text: KHTS 291151Z 20004KT 10SM CLR M03/M07 A3003 RMK AO2 SLP179 T10281067 11028 21050 56027
Loading
Personal Weather Stations






























Interactive Weather Map New forecast layout! Learn more

10-Day Weather Forecast

Advertisements
Track Severe Weather on mobile